createdAt,value
2017-10-28T00:00:26.737Z,0
2017-10-28T00:01:48.909Z,0
2017-10-28T00:03:11.086Z,0
2017-10-28T00:04:33.246Z,0
2017-10-28T00:05:54.445Z,0
2017-10-28T00:07:16.635Z,0
2017-10-28T00:08:38.502Z,0
2017-10-28T00:10:00.698Z,0
2017-10-28T00:11:22.531Z,0
2017-10-28T00:12:45.071Z,0
2017-10-28T00:14:07.600Z,0
2017-10-28T00:15:29.278Z,0
2017-10-28T00:16:51.466Z,0
2017-10-28T00:18:13.317Z,0
2017-10-28T00:19:35.505Z,0
2017-10-28T00:20:57.765Z,0
2017-10-28T00:22:19.617Z,0
2017-10-28T00:23:42.137Z,0
2017-10-28T00:25:03.999Z,0
2017-10-28T00:26:26.246Z,0
2017-10-28T00:27:48.092Z,0
2017-10-28T00:29:10.260Z,0
2017-10-28T00:30:32.164Z,0
2017-10-28T00:31:54.332Z,0
2017-10-28T00:33:15.945Z,0
2017-10-28T00:34:37.791Z,0
2017-10-28T00:35:59.619Z,0
2017-10-28T00:37:21.810Z,0
2017-10-28T00:38:44.424Z,0
2017-10-28T00:40:06.605Z,0
2017-10-28T00:41:28.626Z,0
2017-10-28T00:42:50.134Z,0
2017-10-28T00:44:11.984Z,0
2017-10-28T00:45:34.185Z,0
2017-10-28T00:46:56.037Z,0
2017-10-28T00:48:17.930Z,0
2017-10-28T00:49:40.105Z,0
2017-10-28T00:51:02.302Z,0
2017-10-28T00:52:24.534Z,0
2017-10-28T00:53:47.047Z,0
2017-10-28T00:55:09.232Z,0
2017-10-28T00:56:31.076Z,0
2017-10-28T00:57:53.571Z,0
2017-10-28T00:59:16.094Z,0
2017-10-28T01:00:37.638Z,0
2017-10-28T01:01:59.862Z,0
2017-10-28T01:03:22.283Z,0
2017-10-28T01:04:44.176Z,0
2017-10-28T01:06:06.140Z,0
2017-10-28T01:07:28.040Z,0
2017-10-28T01:08:49.553Z,0
2017-10-28T01:10:11.389Z,0
2017-10-28T01:11:33.954Z,0
2017-10-28T01:12:56.171Z,0
2017-10-28T01:14:18.013Z,0
2017-10-28T01:15:39.883Z,0
2017-10-28T01:17:01.058Z,0
2017-10-28T01:18:22.985Z,0
2017-10-28T01:19:44.804Z,0
2017-10-28T01:21:07.408Z,0
2017-10-28T01:22:29.251Z,0
2017-10-28T01:23:51.416Z,0
2017-10-28T01:25:13.665Z,0
2017-10-28T01:26:35.223Z,0
2017-10-28T01:27:57.082Z,0
2017-10-28T01:29:18.945Z,0
2017-10-28T01:30:41.125Z,0
2017-10-28T01:32:03.066Z,0
2017-10-28T01:33:24.970Z,0
2017-10-28T01:34:46.465Z,0
2017-10-28T01:36:08.984Z,0
2017-10-28T01:37:30.832Z,0
2017-10-28T01:38:52.729Z,0
2017-10-28T01:40:14.575Z,0
2017-10-28T01:41:36.418Z,0
2017-10-28T01:42:58.387Z,0
2017-10-28T01:44:20.580Z,0
2017-10-28T01:45:42.819Z,0
2017-10-28T01:47:04.709Z,0
2017-10-28T01:48:27.053Z,0
2017-10-28T01:49:48.674Z,0
2017-10-28T01:51:10.304Z,0
2017-10-28T01:52:32.155Z,0
2017-10-28T01:53:54.324Z,0
2017-10-28T01:55:16.502Z,0
2017-10-28T01:56:38.010Z,0
2017-10-28T01:58:00.495Z,0
2017-10-28T01:59:22.335Z,0
2017-10-28T02:00:44.840Z,0
2017-10-28T02:02:07.255Z,0
2017-10-28T02:03:29.474Z,0
2017-10-28T02:04:51.657Z,0
2017-10-28T02:06:13.837Z,0
2017-10-28T02:07:36.021Z,0
2017-10-28T02:08:58.506Z,0
2017-10-28T02:10:21.013Z,0
2017-10-28T02:11:42.505Z,0
2017-10-28T02:13:03.687Z,0
2017-10-28T02:14:26.380Z,0
2017-10-28T02:15:47.911Z,0
2017-10-28T02:17:09.864Z,0
2017-10-28T02:18:31.725Z,0
2017-10-28T02:19:54.284Z,0
2017-10-28T02:21:16.973Z,0
2017-10-28T02:22:38.798Z,0
2017-10-28T02:23:59.982Z,0
2017-10-28T02:25:22.135Z,0
2017-10-28T02:26:43.979Z,0
2017-10-28T02:28:05.488Z,0
2017-10-28T02:29:27.706Z,0
2017-10-28T02:30:50.571Z,0
2017-10-28T02:32:12.105Z,0
2017-10-28T02:33:33.267Z,0
2017-10-28T02:34:55.447Z,0
2017-10-28T02:36:17.304Z,0
2017-10-28T02:37:39.139Z,0
2017-10-28T02:39:00.682Z,0
2017-10-28T02:40:21.846Z,0
2017-10-28T02:41:44.236Z,0
2017-10-28T02:43:06.065Z,0
2017-10-28T02:44:28.359Z,0
2017-10-28T02:45:50.200Z,0
2017-10-28T02:47:12.414Z,0
2017-10-28T02:48:34.743Z,0
2017-10-28T02:49:56.595Z,0
2017-10-28T02:51:18.773Z,0
2017-10-28T02:52:41.036Z,0
2017-10-28T02:54:03.200Z,0
2017-10-28T02:55:25.047Z,0
2017-10-28T02:56:47.225Z,0
2017-10-28T02:58:08.974Z,0
2017-10-28T02:59:31.159Z,0
2017-10-28T03:00:52.987Z,0
2017-10-28T03:02:14.839Z,0
2017-10-28T03:03:36.034Z,0
2017-10-28T03:04:57.586Z,0
2017-10-28T03:06:19.105Z,0
2017-10-28T03:07:41.591Z,0
2017-10-28T03:09:04.045Z,0
2017-10-28T03:10:25.886Z,0
2017-10-28T03:11:48.114Z,0
2017-10-28T03:13:10.308Z,0
2017-10-28T03:14:31.885Z,0
2017-10-28T03:15:53.444Z,0
2017-10-28T03:17:15.605Z,0
2017-10-28T03:18:38.177Z,0
2017-10-28T03:20:00.270Z,0
2017-10-28T03:21:22.782Z,0
2017-10-28T03:22:44.626Z,0
2017-10-28T03:24:06.464Z,0
2017-10-28T03:25:28.298Z,0
2017-10-28T03:26:50.484Z,0
2017-10-28T03:28:12.314Z,0
2017-10-28T03:29:34.151Z,0
2017-10-28T03:30:55.846Z,0
2017-10-28T03:32:18.346Z,0
2017-10-28T03:33:40.187Z,0
2017-10-28T03:35:02.364Z,0
2017-10-28T03:36:23.922Z,0
2017-10-28T03:37:46.453Z,0
2017-10-28T03:39:07.958Z,0
2017-10-28T03:40:29.863Z,0
2017-10-28T03:41:52.388Z,0
2017-10-28T03:43:14.255Z,0
2017-10-28T03:44:36.183Z,0
2017-10-28T03:45:58.024Z,0
2017-10-28T03:47:20.536Z,0
2017-10-28T03:48:42.352Z,0
2017-10-28T03:50:03.847Z,0
2017-10-28T03:51:25.401Z,0
2017-10-28T03:52:47.250Z,0
2017-10-28T03:54:09.423Z,0
2017-10-28T03:55:30.946Z,0
2017-10-28T03:56:53.195Z,0
2017-10-28T03:58:15.415Z,0
2017-10-28T03:59:37.265Z,0
2017-10-28T04:01:00.113Z,0
2017-10-28T04:02:22.450Z,0
2017-10-28T04:03:44.318Z,0
2017-10-28T04:05:06.505Z,0
2017-10-28T04:06:28.034Z,0
2017-10-28T04:07:49.556Z,0
2017-10-28T04:09:11.407Z,0
2017-10-28T04:10:33.625Z,0
2017-10-28T04:11:55.487Z,0
2017-10-28T04:13:17.426Z,0
2017-10-28T04:14:39.517Z,0
2017-10-28T04:16:01.715Z,0
2017-10-28T04:17:22.905Z,0
2017-10-28T04:18:44.752Z,0
2017-10-28T04:20:07.031Z,0
2017-10-28T04:21:28.873Z,0
2017-10-28T04:22:50.711Z,0
2017-10-28T04:24:12.535Z,0
2017-10-28T04:25:34.365Z,0
2017-10-28T04:26:55.876Z,0
2017-10-28T04:28:17.728Z,0
2017-10-28T04:29:39.586Z,0
2017-10-28T04:31:01.405Z,0
2017-10-28T04:32:22.568Z,0
2017-10-28T04:33:45.087Z,0
2017-10-28T04:35:07.274Z,0
2017-10-28T04:36:29.694Z,0
2017-10-28T04:37:50.922Z,0
2017-10-28T04:39:12.442Z,0
2017-10-28T04:40:34.298Z,0
2017-10-28T04:41:56.528Z,0
2017-10-28T04:43:18.704Z,0
2017-10-28T04:44:40.545Z,0
2017-10-28T04:46:03.044Z,0
2017-10-28T04:47:25.006Z,0
2017-10-28T04:48:46.611Z,0
2017-10-28T04:50:08.102Z,0
2017-10-28T04:51:29.939Z,0
2017-10-28T04:52:52.095Z,0
2017-10-28T04:54:13.274Z,0
2017-10-28T04:55:35.597Z,0
2017-10-28T04:56:57.124Z,0
2017-10-28T04:58:19.347Z,0
2017-10-28T04:59:41.586Z,0
2017-10-28T05:01:03.095Z,0
2017-10-28T05:02:24.948Z,0
2017-10-28T05:03:47.504Z,0
2017-10-28T05:05:09.690Z,0
2017-10-28T05:06:31.871Z,0
2017-10-28T05:07:54.045Z,0
2017-10-28T05:09:16.232Z,0
2017-10-28T05:10:38.090Z,0
2017-10-28T05:11:59.944Z,0
2017-10-28T05:13:21.817Z,0
2017-10-28T05:14:44.026Z,0
2017-10-28T05:16:06.231Z,0
2017-10-28T05:17:28.444Z,0
2017-10-28T05:18:50.646Z,0
2017-10-28T05:20:12.983Z,0
2017-10-28T05:21:35.163Z,0
2017-10-28T05:22:56.712Z,0
2017-10-28T05:24:19.334Z,0
2017-10-28T05:25:41.876Z,0
2017-10-28T05:27:03.417Z,0
2017-10-28T05:28:25.318Z,0
2017-10-28T05:29:47.488Z,0
2017-10-28T05:31:10.305Z,0
2017-10-28T05:32:31.830Z,0
2017-10-28T05:33:53.684Z,0
2017-10-28T05:35:16.185Z,0
2017-10-28T05:36:38.365Z,0
2017-10-28T05:38:00.198Z,0
2017-10-28T05:39:22.083Z,0
2017-10-28T05:40:44.334Z,0
2017-10-28T05:42:06.184Z,0
2017-10-28T05:43:27.705Z,0
2017-10-28T05:44:49.940Z,0
2017-10-28T05:46:11.134Z,0
2017-10-28T05:47:33.656Z,0
2017-10-28T05:48:55.515Z,0
2017-10-28T05:50:18.044Z,0
2017-10-28T05:51:40.213Z,0
2017-10-28T05:53:02.412Z,0
2017-10-28T05:54:24.605Z,0
2017-10-28T05:55:46.780Z,0
2017-10-28T05:57:08.670Z,0
2017-10-28T05:58:30.183Z,0
2017-10-28T05:59:52.412Z,0
2017-10-28T06:01:14.593Z,0
2017-10-28T06:02:36.774Z,0
2017-10-28T06:03:58.627Z,0
2017-10-28T06:05:21.096Z,0
2017-10-28T06:06:43.267Z,0
2017-10-28T06:08:05.509Z,0
2017-10-28T06:09:27.414Z,0
2017-10-28T06:10:49.936Z,0
2017-10-28T06:12:12.523Z,0
2017-10-28T06:13:34.393Z,0
2017-10-28T06:14:55.924Z,0
2017-10-28T06:16:17.434Z,0
2017-10-28T06:17:38.944Z,0
2017-10-28T06:19:00.896Z,0
2017-10-28T06:20:22.748Z,0
2017-10-28T06:21:45.254Z,0
2017-10-28T06:23:07.095Z,5
2017-10-28T06:24:29.309Z,5
2017-10-28T06:25:51.251Z,5
2017-10-28T06:27:12.472Z,5
2017-10-28T06:28:34.324Z,10
2017-10-28T06:29:56.877Z,10
2017-10-28T06:31:19.123Z,10
2017-10-28T06:32:41.335Z,10
2017-10-28T06:34:02.836Z,10
2017-10-28T06:35:25.026Z,10
2017-10-28T06:36:46.984Z,15
2017-10-28T06:38:08.837Z,15
2017-10-28T06:39:31.042Z,15
2017-10-28T06:40:53.223Z,15
2017-10-28T06:42:15.993Z,15
2017-10-28T06:43:37.944Z,20
2017-10-28T06:45:00.110Z,20
2017-10-28T06:46:21.956Z,20
2017-10-28T06:47:44.260Z,25
2017-10-28T06:49:06.758Z,20
2017-10-28T06:50:28.924Z,20
2017-10-28T06:51:51.449Z,25
2017-10-28T06:53:13.703Z,25
2017-10-28T06:54:35.234Z,30
2017-10-28T06:55:57.137Z,35
2017-10-28T06:57:18.634Z,45
2017-10-28T06:58:41.156Z,45
2017-10-28T07:00:02.987Z,45
2017-10-28T07:01:25.165Z,45
2017-10-28T07:02:47.346Z,45
2017-10-28T07:04:09.542Z,45
2017-10-28T07:05:31.052Z,40
2017-10-28T07:06:52.920Z,45
2017-10-28T07:08:15.124Z,45
2017-10-28T07:09:37.018Z,40
2017-10-28T07:10:59.510Z,40
2017-10-28T07:12:21.824Z,40
2017-10-28T07:13:43.803Z,45
2017-10-28T07:15:06.023Z,55
2017-10-28T07:16:28.214Z,55
2017-10-28T07:17:50.153Z,55
2017-10-28T07:19:12.372Z,55
2017-10-28T07:20:34.243Z,55
2017-10-28T07:21:56.476Z,55
2017-10-28T07:23:19.079Z,55
2017-10-28T07:24:40.313Z,55
2017-10-28T07:26:01.828Z,60
2017-10-28T07:27:24.037Z,65
2017-10-28T07:28:46.533Z,65
2017-10-28T07:30:08.434Z,65
2017-10-28T07:31:30.676Z,60
2017-10-28T07:32:52.556Z,60
2017-10-28T07:34:14.096Z,65
2017-10-28T07:35:35.963Z,65
2017-10-28T07:36:57.833Z,65
2017-10-28T07:38:19.701Z,65
2017-10-28T07:39:41.288Z,50
2017-10-28T07:41:03.806Z,50
2017-10-28T07:42:25.770Z,65
2017-10-28T07:43:47.967Z,80
2017-10-28T07:45:10.148Z,90
2017-10-28T07:46:32.676Z,90
2017-10-28T07:47:54.544Z,85
2017-10-28T07:49:16.802Z,75
2017-10-28T07:50:39.027Z,75
2017-10-28T07:52:00.552Z,75
2017-10-28T07:53:22.404Z,80
2017-10-28T07:54:44.238Z,80
2017-10-28T07:56:06.890Z,75
2017-10-28T07:57:29.093Z,65
2017-10-28T07:58:50.966Z,65
2017-10-28T08:00:13.473Z,65
2017-10-28T08:01:35.674Z,55
2017-10-28T08:02:57.640Z,50
2017-10-28T08:04:20.153Z,50
2017-10-28T08:05:41.676Z,40
2017-10-28T08:07:03.834Z,55
2017-10-28T08:08:26.355Z,65
2017-10-28T08:09:48.586Z,80
2017-10-28T08:11:11.103Z,80
2017-10-28T08:12:33.288Z,80
2017-10-28T08:13:55.164Z,85
2017-10-28T08:15:17.711Z,90
2017-10-28T08:16:40.240Z,95
2017-10-28T08:18:01.874Z,95
2017-10-28T08:19:23.704Z,95
2017-10-28T08:20:46.255Z,95
2017-10-28T08:22:08.812Z,95
2017-10-28T08:23:31.331Z,95
2017-10-28T08:24:53.517Z,95
2017-10-28T08:26:15.725Z,105
2017-10-28T08:27:37.930Z,105
2017-10-28T08:29:00.117Z,100
2017-10-28T08:30:22.891Z,110
2017-10-28T08:31:46.652Z,120
2017-10-28T08:33:08.856Z,125
2017-10-28T08:34:30.715Z,125
2017-10-28T08:35:53.248Z,130
2017-10-28T08:37:16.222Z,140
2017-10-28T08:38:38.744Z,145
2017-10-28T08:40:00.597Z,145
2017-10-28T08:41:22.443Z,150
2017-10-28T08:42:44.644Z,155
2017-10-28T08:44:07.177Z,150
2017-10-28T08:45:29.394Z,150
2017-10-28T08:46:51.756Z,145
2017-10-28T08:48:13.961Z,140
2017-10-28T08:49:36.154Z,125
2017-10-28T08:50:57.696Z,130
2017-10-28T08:52:19.912Z,155
2017-10-28T08:53:42.494Z,155
2017-10-28T08:55:04.694Z,150
2017-10-28T08:56:27.330Z,145
2017-10-28T08:57:49.215Z,145
2017-10-28T08:59:11.584Z,145
2017-10-28T09:00:33.465Z,145
2017-10-28T09:01:55.641Z,145
2017-10-28T09:03:17.514Z,145
2017-10-28T09:04:40.032Z,140
2017-10-28T09:06:02.266Z,160
2017-10-28T09:07:24.835Z,175
2017-10-28T09:08:47.370Z,175
2017-10-28T09:10:09.882Z,180
2017-10-28T09:11:31.418Z,180
2017-10-28T09:12:53.275Z,185
2017-10-28T09:14:15.825Z,175
2017-10-28T09:15:37.684Z,165
2017-10-28T09:17:00.212Z,180
2017-10-28T09:18:22.456Z,185
2017-10-28T09:19:44.733Z,180
2017-10-28T09:21:06.923Z,180
2017-10-28T09:22:28.441Z,185
2017-10-28T09:23:51.026Z,190
2017-10-28T09:25:13.215Z,185
2017-10-28T09:26:34.844Z,155
2017-10-28T09:27:57.065Z,155
2017-10-28T09:29:18.589Z,155
2017-10-28T09:30:40.440Z,145
2017-10-28T09:32:02.978Z,145
2017-10-28T09:33:24.845Z,145
2017-10-28T09:34:47.040Z,145
2017-10-28T09:36:09.252Z,140
2017-10-28T09:37:31.175Z,130
2017-10-28T09:38:53.047Z,135
2017-10-28T09:40:14.896Z,135
2017-10-28T09:41:37.667Z,140
2017-10-28T09:43:00.243Z,145
2017-10-28T09:44:22.790Z,145
2017-10-28T09:45:45.315Z,140
2017-10-28T09:47:07.584Z,110
2017-10-28T09:48:30.239Z,100
2017-10-28T09:49:52.790Z,105
2017-10-28T09:51:14.371Z,110
2017-10-28T09:52:36.593Z,115
2017-10-28T09:53:58.794Z,120
2017-10-28T09:55:20.664Z,120
2017-10-28T09:56:42.858Z,95
2017-10-28T09:58:05.390Z,120
2017-10-28T09:59:27.243Z,155
2017-10-28T10:00:49.484Z,145
2017-10-28T10:02:11.395Z,150
2017-10-28T10:03:33.964Z,120
2017-10-28T10:04:56.667Z,120
2017-10-28T10:06:18.943Z,145
2017-10-28T10:07:40.904Z,140
2017-10-28T10:09:02.901Z,150
2017-10-28T10:10:24.763Z,170
2017-10-28T10:11:47.020Z,155
2017-10-28T10:13:09.330Z,165
2017-10-28T10:14:31.592Z,180
2017-10-28T10:15:53.500Z,195
2017-10-28T10:17:15.788Z,220
2017-10-28T10:18:37.655Z,205
2017-10-28T10:19:59.900Z,210
2017-10-28T10:21:22.361Z,195
2017-10-28T10:22:44.626Z,195
2017-10-28T10:24:06.603Z,190
2017-10-28T10:25:29.180Z,190
2017-10-28T10:26:51.033Z,195
2017-10-28T10:28:13.624Z,210
2017-10-28T10:29:36.166Z,195
2017-10-28T10:30:58.075Z,180
2017-10-28T10:32:19.270Z,150
2017-10-28T10:33:41.807Z,160
2017-10-28T10:35:04.034Z,150
2017-10-28T10:36:26.296Z,145
2017-10-28T10:37:48.856Z,145
2017-10-28T10:39:11.084Z,125
2017-10-28T10:40:33.621Z,145
2017-10-28T10:41:56.146Z,115
2017-10-28T10:43:18.399Z,130
2017-10-28T10:44:40.615Z,135
2017-10-28T10:46:02.867Z,165
2017-10-28T10:47:25.107Z,165
2017-10-28T10:48:47.629Z,145
2017-10-28T10:50:09.636Z,140
2017-10-28T10:51:31.812Z,140
2017-10-28T10:52:54.340Z,155
2017-10-28T10:54:16.873Z,140
2017-10-28T10:55:39.465Z,170
2017-10-28T10:57:01.644Z,130
2017-10-28T10:58:23.852Z,155
2017-10-28T10:59:46.130Z,155
2017-10-28T11:01:07.974Z,170
2017-10-28T11:02:29.840Z,175
2017-10-28T11:03:52.352Z,215
2017-10-28T11:05:14.541Z,200
2017-10-28T11:06:37.123Z,180
2017-10-28T11:07:58.971Z,165
2017-10-28T11:09:21.163Z,140
2017-10-28T11:10:43.044Z,160
2017-10-28T11:12:05.588Z,165
2017-10-28T11:13:28.115Z,195
2017-10-28T11:14:50.316Z,185
2017-10-28T11:16:12.233Z,220
2017-10-28T11:17:34.449Z,235
2017-10-28T11:18:56.705Z,235
2017-10-28T11:20:19.004Z,245
2017-10-28T11:21:41.515Z,200
2017-10-28T11:23:03.703Z,225
2017-10-28T11:24:26.241Z,230
2017-10-28T11:25:47.767Z,220
2017-10-28T11:27:09.977Z,195
2017-10-28T11:28:32.538Z,210
2017-10-28T11:29:54.831Z,250
2017-10-28T11:31:16.705Z,240
2017-10-28T11:32:38.672Z,205
2017-10-28T11:34:00.944Z,185
2017-10-28T11:35:22.807Z,225
2017-10-28T11:36:45.110Z,185
2017-10-28T11:38:07.322Z,225
2017-10-28T11:39:29.555Z,210
2017-10-28T11:40:52.082Z,180
2017-10-28T11:42:14.325Z,140
2017-10-28T11:43:35.840Z,155
2017-10-28T11:44:57.701Z,165
2017-10-28T11:46:19.883Z,145
2017-10-28T11:47:42.087Z,140
2017-10-28T11:49:04.329Z,145
2017-10-28T11:50:26.556Z,130
2017-10-28T11:51:48.555Z,155
2017-10-28T11:53:11.095Z,105
2017-10-28T11:54:33.158Z,120
2017-10-28T11:55:55.382Z,120
2017-10-28T11:57:17.966Z,155
2017-10-28T11:58:40.159Z,215
2017-10-28T12:00:01.874Z,205
2017-10-28T12:01:23.884Z,175
2017-10-28T12:02:45.405Z,175
2017-10-28T12:04:07.628Z,165
2017-10-28T12:05:29.949Z,165
2017-10-28T12:06:52.197Z,210
2017-10-28T12:08:14.166Z,190
2017-10-28T12:09:36.690Z,170
2017-10-28T12:10:58.567Z,135
2017-10-28T12:12:20.474Z,120
2017-10-28T12:13:41.702Z,120
2017-10-28T12:15:03.568Z,145
2017-10-28T12:16:25.494Z,150
2017-10-28T12:17:47.365Z,155
2017-10-28T12:19:09.583Z,125
2017-10-28T12:20:31.811Z,160
2017-10-28T12:21:54.017Z,185
2017-10-28T12:23:15.883Z,155
2017-10-28T12:24:37.785Z,145
2017-10-28T12:25:59.987Z,140
2017-10-28T12:27:22.196Z,110
2017-10-28T12:28:44.414Z,130
2017-10-28T12:30:06.601Z,155
2017-10-28T12:31:29.314Z,160
2017-10-28T12:32:51.000Z,165
2017-10-28T12:34:13.207Z,185
2017-10-28T12:35:35.464Z,160
2017-10-28T12:36:57.335Z,175
2017-10-28T12:38:19.545Z,180
2017-10-28T12:39:41.086Z,165
2017-10-28T12:41:03.301Z,160
2017-10-28T12:42:25.257Z,160
2017-10-28T12:43:47.444Z,145
2017-10-28T12:45:09.651Z,145
2017-10-28T12:46:32.206Z,145
2017-10-28T12:47:54.722Z,150
2017-10-28T12:49:17.167Z,175
2017-10-28T12:50:39.361Z,155
2017-10-28T12:52:01.565Z,135
2017-10-28T12:53:23.544Z,125
2017-10-28T12:54:45.724Z,120
2017-10-28T12:56:07.978Z,115
2017-10-28T12:57:30.160Z,115
2017-10-28T12:58:52.709Z,140
2017-10-28T13:00:14.954Z,140
2017-10-28T13:01:37.159Z,125
2017-10-28T13:02:59.688Z,150
2017-10-28T13:04:22.214Z,150
2017-10-28T13:05:44.427Z,115
2017-10-28T13:07:06.772Z,125
2017-10-28T13:08:28.718Z,120
2017-10-28T13:09:50.911Z,105
2017-10-28T13:11:13.492Z,100
2017-10-28T13:12:36.013Z,90
2017-10-28T13:13:58.351Z,85
2017-10-28T13:15:20.894Z,70
2017-10-28T13:16:43.476Z,70
2017-10-28T13:18:05.676Z,65
2017-10-28T13:19:28.221Z,70
2017-10-28T13:20:50.455Z,60
2017-10-28T13:22:12.992Z,90
2017-10-28T13:23:34.885Z,105
2017-10-28T13:24:57.086Z,90
2017-10-28T13:26:19.303Z,70
2017-10-28T13:27:41.874Z,80
2017-10-28T13:29:04.061Z,70
2017-10-28T13:30:26.585Z,80
2017-10-28T13:31:48.794Z,75
2017-10-28T13:33:11.402Z,70
2017-10-28T13:34:33.637Z,70
2017-10-28T13:35:55.970Z,70
2017-10-28T13:37:17.824Z,65
2017-10-28T13:38:39.779Z,65
2017-10-28T13:40:01.283Z,50
2017-10-28T13:41:23.483Z,55
2017-10-28T13:42:45.677Z,55
2017-10-28T13:44:07.849Z,50
2017-10-28T13:45:30.066Z,50
2017-10-28T13:46:52.591Z,50
2017-10-28T13:48:15.131Z,50
2017-10-28T13:49:37.482Z,45
2017-10-28T13:50:59.696Z,45
2017-10-28T13:52:22.247Z,35
2017-10-28T13:53:44.786Z,30
2017-10-28T13:55:06.645Z,35
2017-10-28T13:56:29.298Z,35
2017-10-28T13:57:51.177Z,35
2017-10-28T13:59:13.055Z,30
2017-10-28T14:00:35.767Z,45
2017-10-28T14:01:57.615Z,50
2017-10-28T14:03:19.175Z,50
2017-10-28T14:04:41.366Z,50
2017-10-28T14:06:03.224Z,50
2017-10-28T14:07:25.417Z,40
2017-10-28T14:08:46.949Z,40
2017-10-28T14:10:09.843Z,50
2017-10-28T14:11:32.541Z,50
2017-10-28T14:12:55.126Z,45
2017-10-28T14:14:17.326Z,50
2017-10-28T14:15:39.524Z,50
2017-10-28T14:17:01.803Z,60
2017-10-28T14:18:24.023Z,55
2017-10-28T14:19:46.274Z,50
2017-10-28T14:21:08.818Z,45
2017-10-28T14:22:31.352Z,50
2017-10-28T14:23:53.973Z,45
2017-10-28T14:25:16.191Z,30
2017-10-28T14:26:38.390Z,30
2017-10-28T14:28:00.626Z,25
2017-10-28T14:29:22.885Z,15
2017-10-28T14:30:44.477Z,10
2017-10-28T14:32:07.066Z,10
2017-10-28T14:33:29.636Z,15
2017-10-28T14:34:51.835Z,10
2017-10-28T14:36:13.695Z,10
2017-10-28T14:37:35.936Z,10
2017-10-28T14:38:58.204Z,10
2017-10-28T14:40:20.145Z,15
2017-10-28T14:41:42.008Z,10
2017-10-28T14:43:04.225Z,15
2017-10-28T14:44:26.105Z,15
2017-10-28T14:45:48.319Z,20
2017-10-28T14:47:10.518Z,25
2017-10-28T14:48:33.075Z,20
2017-10-28T14:49:55.486Z,25
2017-10-28T14:51:18.026Z,20
2017-10-28T14:52:39.545Z,20
2017-10-28T14:54:01.743Z,20
2017-10-28T14:55:24.244Z,15
2017-10-28T14:56:46.215Z,10
2017-10-28T14:58:08.457Z,10
2017-10-28T14:59:30.746Z,10
2017-10-28T15:00:53.248Z,5
2017-10-28T15:02:15.153Z,10
2017-10-28T15:03:37.407Z,5
2017-10-28T15:04:59.973Z,10
2017-10-28T15:06:22.275Z,5
2017-10-28T15:07:44.895Z,5
2017-10-28T15:09:07.427Z,10
2017-10-28T15:10:29.675Z,10
2017-10-28T15:11:51.865Z,15
2017-10-28T15:13:13.709Z,10
2017-10-28T15:14:35.634Z,15
2017-10-28T15:15:57.872Z,15
2017-10-28T15:17:20.430Z,15
2017-10-28T15:18:42.687Z,15
2017-10-28T15:20:04.896Z,10
2017-10-28T15:21:27.096Z,10
2017-10-28T15:22:49.673Z,15
2017-10-28T15:24:11.864Z,10
2017-10-28T15:25:33.712Z,10
2017-10-28T15:26:56.341Z,10
2017-10-28T15:28:18.594Z,10
2017-10-28T15:29:40.517Z,10
2017-10-28T15:31:03.055Z,10
2017-10-28T15:32:24.571Z,5
2017-10-28T15:33:46.435Z,5
2017-10-28T15:35:08.669Z,5
2017-10-28T15:36:30.573Z,5
2017-10-28T15:37:53.115Z,5
2017-10-28T15:39:14.991Z,5
2017-10-28T15:40:37.533Z,5
2017-10-28T15:41:59.377Z,0
2017-10-28T15:43:21.602Z,5
2017-10-28T15:44:43.175Z,5
2017-10-28T15:46:05.438Z,0
2017-10-28T15:47:27.638Z,0
2017-10-28T15:48:49.841Z,0
2017-10-28T15:50:12.435Z,0
2017-10-28T15:51:34.977Z,0
2017-10-28T15:52:56.856Z,0
2017-10-28T15:54:19.037Z,0
2017-10-28T15:55:41.575Z,0
2017-10-28T15:57:04.127Z,0
2017-10-28T15:58:26.357Z,0
2017-10-28T15:59:48.909Z,0
2017-10-28T16:01:11.187Z,0
2017-10-28T16:02:33.739Z,0
2017-10-28T16:03:56.309Z,0
2017-10-28T16:05:18.502Z,0
2017-10-28T16:06:40.357Z,0
2017-10-28T16:08:02.893Z,0
2017-10-28T16:09:25.416Z,0
2017-10-28T16:10:47.876Z,0
2017-10-28T16:12:10.060Z,0
2017-10-28T16:13:32.598Z,0
2017-10-28T16:14:55.181Z,0
2017-10-28T16:16:17.733Z,0
2017-10-28T16:17:40.387Z,0
2017-10-28T16:19:02.582Z,0
2017-10-28T16:20:24.759Z,0
2017-10-28T16:21:46.976Z,0
2017-10-28T16:23:09.497Z,0
2017-10-28T16:24:32.044Z,0
2017-10-28T16:25:54.257Z,0
2017-10-28T16:27:16.478Z,0
2017-10-28T16:28:38.768Z,0
2017-10-28T16:30:00.975Z,0
2017-10-28T16:31:23.716Z,0
2017-10-28T16:32:45.618Z,0
2017-10-28T16:34:07.826Z,0
2017-10-28T16:35:30.376Z,0
2017-10-28T16:36:53.015Z,0
2017-10-28T16:38:14.901Z,0
2017-10-28T16:39:37.127Z,0
2017-10-28T16:40:59.326Z,0
2017-10-28T16:42:21.864Z,0
2017-10-28T16:43:44.419Z,0
2017-10-28T16:45:06.957Z,0
2017-10-28T16:46:28.834Z,0
2017-10-28T16:47:51.087Z,0
2017-10-28T16:49:12.930Z,0
2017-10-28T16:50:35.146Z,0
2017-10-28T16:51:57.330Z,0
2017-10-28T16:53:19.864Z,0
2017-10-28T16:54:41.721Z,0
2017-10-28T16:56:03.924Z,0
2017-10-28T16:57:25.874Z,0
2017-10-28T16:58:48.438Z,0
2017-10-28T17:00:11.025Z,0
2017-10-28T17:01:33.614Z,0
2017-10-28T17:02:55.914Z,0
2017-10-28T17:04:18.385Z,0
2017-10-28T17:05:40.947Z,0
2017-10-28T17:07:03.132Z,0
2017-10-28T17:08:25.688Z,0
2017-10-28T17:09:48.055Z,0
2017-10-28T17:11:10.096Z,0
2017-10-28T17:12:31.943Z,0
2017-10-28T17:13:54.134Z,0
2017-10-28T17:15:16.436Z,0
2017-10-28T17:16:38.970Z,0
2017-10-28T17:18:00.855Z,0
2017-10-28T17:19:23.401Z,0
2017-10-28T17:20:45.944Z,0
2017-10-28T17:22:07.855Z,0
2017-10-28T17:23:29.589Z,0
2017-10-28T17:24:52.136Z,0
2017-10-28T17:26:14.329Z,0
2017-10-28T17:27:36.934Z,0
2017-10-28T17:28:58.826Z,0
2017-10-28T17:30:21.056Z,0
2017-10-28T17:31:43.581Z,0
2017-10-28T17:33:06.122Z,0
2017-10-28T17:34:28.086Z,0
2017-10-28T17:35:50.321Z,0
2017-10-28T17:37:12.537Z,0
2017-10-28T17:38:35.144Z,0
2017-10-28T17:39:57.345Z,0
2017-10-28T17:41:20.016Z,0
2017-10-28T17:42:42.226Z,0
2017-10-28T17:44:04.903Z,0
2017-10-28T17:45:27.177Z,0
2017-10-28T17:46:49.382Z,0
2017-10-28T17:48:11.255Z,0
2017-10-28T17:49:33.458Z,0
2017-10-28T17:50:55.774Z,0
2017-10-28T17:52:17.703Z,0
2017-10-28T17:53:39.876Z,0
2017-10-28T17:55:02.093Z,0
2017-10-28T17:56:23.970Z,0
2017-10-28T17:57:46.533Z,0
2017-10-28T17:59:08.419Z,0
2017-10-28T18:00:30.628Z,0
2017-10-28T18:01:52.872Z,0
2017-10-28T18:03:14.767Z,0
2017-10-28T18:04:36.998Z,0
2017-10-28T18:05:59.196Z,0
2017-10-28T18:07:21.727Z,0
2017-10-28T18:08:43.924Z,0
2017-10-28T18:10:06.168Z,0
2017-10-28T18:11:28.758Z,0
2017-10-28T18:12:51.002Z,0
2017-10-28T18:14:12.888Z,0
2017-10-28T18:15:35.138Z,0
2017-10-28T18:16:57.738Z,0
2017-10-28T18:18:19.953Z,0
2017-10-28T18:19:41.689Z,0
2017-10-28T18:21:04.245Z,0
2017-10-28T18:22:26.146Z,0
2017-10-28T18:23:48.777Z,0
2017-10-28T18:25:11.347Z,0
2017-10-28T18:26:34.061Z,0
2017-10-28T18:27:56.683Z,0
2017-10-28T18:29:19.027Z,0
2017-10-28T18:30:41.575Z,0
2017-10-28T18:32:03.930Z,0
2017-10-28T18:33:25.923Z,0
2017-10-28T18:34:48.132Z,0
2017-10-28T18:36:10.362Z,0
2017-10-28T18:37:32.903Z,0
2017-10-28T18:38:55.486Z,0
2017-10-28T18:40:17.735Z,0
2017-10-28T18:41:40.061Z,0
2017-10-28T18:43:01.926Z,0
2017-10-28T18:44:24.449Z,0
2017-10-28T18:45:47.093Z,0
2017-10-28T18:47:09.330Z,0
2017-10-28T18:48:31.977Z,0
2017-10-28T18:49:54.516Z,0
2017-10-28T18:51:17.423Z,0
2017-10-28T18:52:39.665Z,0
2017-10-28T18:54:01.985Z,0
2017-10-28T18:55:24.545Z,0
2017-10-28T18:56:47.172Z,0
2017-10-28T18:58:09.418Z,0
2017-10-28T18:59:31.954Z,0
2017-10-28T19:00:54.524Z,0
2017-10-28T19:02:16.106Z,0
2017-10-28T19:03:38.662Z,0
2017-10-28T19:05:01.224Z,0
2017-10-28T19:06:23.455Z,0
2017-10-28T19:07:45.669Z,0
2017-10-28T19:09:08.009Z,0
2017-10-28T19:10:30.256Z,0
2017-10-28T19:11:52.496Z,0
2017-10-28T19:13:14.735Z,0
2017-10-28T19:14:36.955Z,0
2017-10-28T19:15:59.518Z,0
2017-10-28T19:17:22.055Z,0
2017-10-28T19:18:44.647Z,0
2017-10-28T19:20:07.226Z,0
2017-10-28T19:21:29.785Z,0
2017-10-28T19:22:51.712Z,0
2017-10-28T19:24:13.929Z,0
2017-10-28T19:25:36.525Z,0
2017-10-28T19:26:58.412Z,0
2017-10-28T19:28:20.985Z,0
2017-10-28T19:29:43.556Z,0
2017-10-28T19:31:06.103Z,0
2017-10-28T19:32:28.816Z,0
2017-10-28T19:33:51.581Z,0
2017-10-28T19:35:13.926Z,0
2017-10-28T19:36:36.416Z,0
2017-10-28T19:37:59.240Z,0
2017-10-28T19:39:21.807Z,0
2017-10-28T19:40:44.139Z,0
2017-10-28T19:42:06.667Z,0
2017-10-28T19:43:29.273Z,0
2017-10-28T19:44:51.513Z,0